DMYBT EDVK-EDVK

Flight info

Callsign DMYBT
Flight time 0h 6m
Altitude
Route
Aircraft C172

Departure

Time 2026-04-30 19:12
Airport Kassel Airport (EDVK)

Arrival

Time 2026-04-30 19:18
Airport Kassel Airport (EDVK)
Time Latitude Longitude Altitude Speed Heading
2026-04-30 18:53 51.41934 9.38936 865 ft 0 kts 274°
2026-04-30 18:53 51.41940 9.38909 853 ft 4 kts 293°
2026-04-30 18:54 51.41958 9.38880 854 ft 4 kts 330°
2026-04-30 18:54 51.41992 9.38873 855 ft 7 kts
2026-04-30 18:54 51.42055 9.38885 859 ft 10 kts
2026-04-30 18:54 51.42093 9.38939 859 ft 4 kts 96°
2026-04-30 18:55 51.42093 9.38940 859 ft 0 kts 95°
2026-04-30 18:56 51.42052 9.39686 901 ft 62 kts 94°
2026-04-30 18:56 51.42021 9.40485 980 ft 78 kts 94°
2026-04-30 18:56 51.41971 9.41403 1031 ft 89 kts 95°
2026-04-30 18:57 51.42892 9.42467 1086 ft 111 kts
2026-04-30 18:57 51.43529 9.41757 1141 ft 121 kts 307°
2026-04-30 18:57 51.43573 9.40476 1105 ft 123 kts 244°
2026-04-30 18:58 51.43175 9.37966 1111 ft 113 kts 274°
2026-04-30 18:58 51.43626 9.37286 1171 ft 88 kts 19°
2026-04-30 18:58 51.43929 9.37947 1159 ft 82 kts 100°
2026-04-30 18:59 51.42954 9.37737 1148 ft 110 kts 250°
2026-04-30 19:00 51.43464 9.37490 1193 ft 87 kts 150°
2026-04-30 19:00 51.42920 9.36924 1194 ft 122 kts 261°
2026-04-30 19:00 51.43650 9.36668 1196 ft 78 kts 102°
2026-04-30 19:01 51.43180 9.35812 1196 ft 113 kts 316°
2026-04-30 19:01 51.43803 9.35558 1174 ft 87 kts 44°
2026-04-30 19:02 51.43354 9.36182 1167 ft 109 kts 243°
2026-04-30 19:02 51.43970 9.35836 1200 ft 73 kts 116°
2026-04-30 19:03 51.42803 9.35828 1155 ft 92 kts 177°
2026-04-30 19:03 51.41619 9.35632 1195 ft 78 kts 166°
2026-04-30 19:04 51.40870 9.33964 1187 ft 131 kts 296°
2026-04-30 19:04 51.42036 9.33479 1354 ft 90 kts 20°
2026-04-30 19:05 51.42321 9.34942 1203 ft 83 kts 95°
2026-04-30 19:05 51.42236 9.36592 1004 ft 72 kts 94°
2026-04-30 19:06 51.42142 9.38098 870 ft 50 kts 94°
2026-04-30 19:06 51.42111 9.38593 859 ft 55 kts 94°
2026-04-30 19:06 51.42022 9.40145 1047 ft 75 kts 97°
2026-04-30 19:07 51.42072 9.41862 1273 ft 88 kts 52°
2026-04-30 19:07 51.42741 9.41869 1364 ft 108 kts
2026-04-30 19:08 51.43322 9.39695 1410 ft 130 kts 272°
2026-04-30 19:08 51.43474 9.37039 1267 ft 125 kts 278°
2026-04-30 19:08 51.43473 9.35601 1214 ft 141 kts 261°
2026-04-30 19:09 51.42411 9.35157 1040 ft 82 kts 113°
2026-04-30 19:09 51.42261 9.35967 1043 ft 68 kts 95°
2026-04-30 19:09 51.42232 9.36652 991 ft 55 kts 92°
2026-04-30 19:10 51.42151 9.37956 883 ft 62 kts 95°
2026-04-30 19:10 51.42088 9.39167 859 ft 46 kts 95°
2026-04-30 19:11 51.42046 9.39831 882 ft 69 kts 94°
2026-04-30 19:11 51.41956 9.41538 1121 ft 82 kts 97°
2026-04-30 19:11 51.42231 9.42185 1359 ft 97 kts
2026-04-30 19:12 51.42968 9.42004 1365 ft 115 kts
2026-04-30 19:12 51.43647 9.41341 1445 ft 131 kts 290°
2026-04-30 19:12 51.43735 9.39900 1497 ft 127 kts 274°
2026-04-30 19:13 51.43732 9.36907 1433 ft 133 kts 265°
2026-04-30 19:13 51.42668 9.35508 1351 ft 105 kts 158°
2026-04-30 19:13 51.42260 9.36260 1108 ft 88 kts 96°
2026-04-30 19:14 51.42198 9.37190 940 ft 73 kts 93°
2026-04-30 19:14 51.42150 9.37925 875 ft 60 kts 94°
2026-04-30 19:14 51.42118 9.38553 859 ft 52 kts 94°
2026-04-30 19:14 51.42092 9.39129 859 ft 64 kts 97°
2026-04-30 19:15 51.42055 9.39903 981 ft 71 kts 86°
2026-04-30 19:15 51.42031 9.41598 1195 ft 92 kts 57°
2026-04-30 19:15 51.42752 9.41761 1271 ft 118 kts
2026-04-30 19:16 51.43591 9.41637 1306 ft 118 kts
2026-04-30 19:16 51.44119 9.40713 1348 ft 125 kts 276°
2026-04-30 19:16 51.44010 9.37964 1239 ft 127 kts 275°
2026-04-30 19:17 51.44002 9.36581 1254 ft 123 kts 248°
2026-04-30 19:17 51.42697 9.35593 1244 ft 96 kts 163°
2026-04-30 19:17 51.42312 9.36195 1137 ft 73 kts 103°
2026-04-30 19:18 51.42185 9.37364 914 ft 54 kts 94°
2026-04-30 19:18 51.42146 9.38028 861 ft 37 kts 98°
2026-04-30 19:18 51.42122 9.38409 865 ft 32 kts 96°
2026-04-30 19:19 51.42103 9.38780 865 ft 34 kts 96°
2026-04-30 19:19 51.42012 9.38876 865 ft 12 kts 188°
2026-04-30 19:19 51.41969 9.38870 866 ft 0 kts 185°
2026-04-30 19:20 51.41957 9.38882 862 ft 9 kts 136°
2026-04-30 19:20 51.41932 9.38971 865 ft 7 kts 94°
2026-04-30 19:20 51.41908 9.39346 855 ft 15 kts 127°
2026-04-30 19:21 51.41802 9.39356 840 ft 12 kts 154°
2026-04-30 19:21 51.41759 9.39390 835 ft 3 kts 102°
2026-04-30 19:22 51.41750 9.39404 834 ft 0 kts 185°